Impacts METAR Board
IDs:

KCLT - Charlotte/Douglas In, NC, US

Updated at: 1800 UTC 22 Sep 2018
Potential Impact None Slight Moderate High
Time 22/06Z 22/07Z 22/08Z 22/09Z 22/10Z 22/11Z 22/12Z 22/13Z 22/14Z 22/15Z 22/16Z 22/17Z 22/18Z
Temp72 72 72 71 70 69 70 74 77 80 83 85 85
Dewpt70 70 69 69 68 68 69 70 71 71 70 70 70
Altim30.15 30.14 30.13 30.12 30.13 30.13 30.14 30.14 30.14 30.14 30.14 30.12 30.11
VIS9 9 10 10 9 8 7 9 9 10 10 10 10
CIG-- -- -- -- -- -- -- -- -- -- -- -- --
CoverCLRFEWFEWCLRCLRCLRCLRCLRCLRCLRFEWFEWSCT
FltCatVFRVFRVFRVFRVFRVFRVFRVFRVFRVFRVFRVFRVFR
WX--------------------------
WDir17020021022020020019022024025028000
WSpd4 5 5 4 5 5 3 5 5 7 4 4 0
WGst-- -- -- -- -- -- -- -- -- -- -- -- --
Raw hourly METARs
KCLT 220552Z 17004KT 9SM CLR 22/21 A3015 RMK AO2 SLP200 T02220211 10261 20222 58004
KCLT 220652Z 20005KT 9SM FEW250 22/21 A3014 RMK AO2 SLP196 T02220211
KCLT 220752Z 21005KT 10SM FEW250 22/21 A3013 RMK AO2 SLP193 T02220206
KCLT 220852Z 22004KT 10SM CLR 22/21 A3012 RMK AO2 SLP192 T02170206 56008
KCLT 220952Z 20005KT 9SM CLR 21/20 A3013 RMK AO2 SLP193 T02110200
KCLT 221052Z 20005KT 8SM CLR 21/20 A3013 RMK AO2 SLP193 T02060200
KCLT 221152Z 19003KT 7SM CLR 21/21 A3014 RMK AO2 SLP197 T02110206 10222 20206 53004
KCLT 221252Z 22005KT 9SM CLR 23/21 A3014 RMK AO2 SLP197 T02330211
KCLT 221352Z 24005KT 9SM CLR 25/22 A3014 RMK AO2 SLP197 T02500217
KCLT 221452Z 25007KT 10SM CLR 27/22 A3014 RMK AO2 SLP197 T02670217 50001
KCLT 221552Z 28004KT 10SM FEW020 28/21 A3014 RMK AO2 SLP196 T02830211
KCLT 221652Z VRB04KT 10SM FEW030 29/21 A3012 RMK AO2 SLP192 T02940211
KCLT 221752Z 00000KT 10SM SCT044 29/21 A3011 RMK AO2 SLP186 T02940211 10306 20211 58011



Page loaded:  18:52 UTC  |   11:52 AM Pacific  |   12:52 PM Mountain  |   01:52 PM Central  |   02:52 PM Eastern

 

ADVISORIES

FORECASTS

FORECASTS

OBSERVATIONS

USER TOOLS

ABOUT US